Time;durP1;ratioP1;P1;durP2;ratioP2;P2;SDS_P1;SDS_P2;PMS_P1;PMS_P2;Temp;Humidity;BMP_temperature;BMP_pressure;BME280_temperature;BME280_humidity;BME280_pressure;Samples;Min_cycle;Max_cycle;Signal;HPM_P1;HPM_P2
2022/11/02 00:00:50;;;;;;;;;0.75;0.00;;;;;15.54;66.62;101599.38;5036817;28;45482;-49
2022/11/02 00:03:15;;;;;;;;;3.00;1.00;;;;;15.54;66.82;101604.72;5037065;28;45381;-52
2022/11/02 00:05:41;;;;;;;;;0.50;0.50;;;;;15.51;66.75;101610.44;5036643;28;45911;-50
2022/11/02 00:08:06;;;;;;;;;0.75;0.75;;;;;15.50;66.77;101604.19;5036791;28;45442;-52
2022/11/02 00:10:31;;;;;;;;;3.00;1.00;;;;;15.48;66.89;101600.84;5036926;28;45415;-51
2022/11/02 00:12:57;;;;;;;;;2.25;0.25;;;;;15.48;66.84;101598.16;5036759;28;45424;-50
2022/11/02 00:15:29;;;;;;;;;2.00;2.00;;;;;15.45;66.32;101599.31;5036366;28;45957;-51
2022/11/02 00:17:59;;;;;;;;;1.00;0.00;;;;;15.45;66.47;101611.88;5036646;28;45431;-48
2022/11/02 00:20:25;;;;;;;;;1.00;1.00;;;;;15.42;66.74;101614.88;5036647;28;45323;-52
2022/11/02 00:22:55;;;;;;;;;4.75;1.25;;;;;15.36;66.58;101605.63;5036790;28;45434;-52
2022/11/02 00:25:23;;;;;;;;;2.00;1.00;;;;;15.33;66.24;101605.09;5036373;28;46976;-52
2022/11/02 00:27:48;;;;;;;;;3.00;1.00;;;;;15.28;66.36;101610.94;5036351;28;46159;-52
2022/11/02 00:30:14;;;;;;;;;3.75;1.00;;;;;15.25;66.37;101608.56;5036621;28;45346;-51
2022/11/02 00:32:40;;;;;;;;;2.50;1.00;;;;;15.23;66.67;101624.81;5037032;28;45224;-53
2022/11/02 00:35:06;;;;;;;;;2.25;1.00;;;;;15.20;66.30;101619.75;5039843;28;45434;-53
2022/11/02 00:37:31;;;;;;;;;0.75;0.00;;;;;15.17;66.36;101641.50;5039998;28;45297;-52
2022/11/02 00:39:57;;;;;;;;;1.25;0.00;;;;;15.17;65.85;101628.13;5040023;28;45319;-52
2022/11/02 00:42:22;;;;;;;;;2.00;1.00;;;;;15.14;66.07;101624.91;5040010;28;46181;-51
2022/11/02 00:44:48;;;;;;;;;1.00;1.00;;;;;15.15;65.80;101635.44;5039686;28;45421;-51
2022/11/02 00:47:13;;;;;;;;;0.00;0.00;;;;;15.16;65.85;101634.44;5039715;28;45405;-51
2022/11/02 00:49:38;;;;;;;;;4.00;1.00;;;;;15.13;65.68;101631.25;5039894;28;45412;-53
2022/11/02 00:52:04;;;;;;;;;1.25;1.00;;;;;15.09;65.57;101636.09;5039910;28;45276;-52
2022/11/02 00:54:29;;;;;;;;;6.67;2.00;;;;;15.09;65.60;101648.66;5039526;28;45581;-51
2022/11/02 00:56:55;;;;;;;;;3.25;1.00;;;;;15.07;65.52;101645.25;5039629;28;45481;-53
2022/11/02 00:59:20;;;;;;;;;0.75;0.75;;;;;15.07;65.35;101647.94;5039509;28;45378;-49
2022/11/02 01:01:48;;;;;;;;;2.25;0.75;;;;;14.99;65.59;101654.06;5039967;28;45407;-50
2022/11/02 01:04:14;;;;;;;;;1.33;1.33;;;;;14.99;65.45;101651.38;5039188;28;45517;-53
2022/11/02 01:06:41;;;;;;;;;4.00;0.50;;;;;15.01;64.89;101659.28;5039114;28;45360;-52
2022/11/02 01:09:06;;;;;;;;;3.00;1.25;;;;;14.99;65.02;101662.09;5039454;28;45288;-51
2022/11/02 01:11:31;;;;;;;;;1.00;1.00;;;;;15.01;65.11;101670.84;5039620;28;45293;-50
2022/11/02 01:13:57;;;;;;;;;4.33;2.00;;;;;14.99;65.08;101667.47;5039011;28;45391;-50
2022/11/02 01:16:22;;;;;;;;;1.33;1.00;;;;;14.96;64.84;101671.31;5039185;28;45258;-53
2022/11/02 01:18:53;;;;;;;;;2.33;1.67;;;;;14.95;65.18;101671.44;5039379;28;45260;-53
2022/11/02 01:21:19;;;;;;;;;0.67;0.67;;;;;14.92;65.18;101663.72;5039607;28;45289;-53
2022/11/02 01:23:44;;;;;;;;;3.67;1.33;;;;;14.80;65.20;101656.91;5039039;28;45469;-51
2022/11/02 01:26:10;;;;;;;;;0.00;0.00;;;;;14.89;65.33;101677.41;5039000;28;45440;-50
2022/11/02 01:28:36;;;;;;;;;2.33;1.00;;;;;14.88;65.33;101675.75;5039000;28;45693;-52
2022/11/02 01:31:02;;;;;;;;;1.00;0.00;;;;;14.83;65.49;101678.88;5039289;28;45565;-51
2022/11/02 01:33:28;;;;;;;;;2.50;1.00;;;;;14.82;65.53;101670.97;5039094;28;46157;-52
2022/11/02 01:35:54;;;;;;;;;2.00;1.33;;;;;14.80;65.47;101664.94;5038719;28;45410;-50
2022/11/02 01:38:20;;;;;;;;;1.00;1.00;;;;;14.78;65.82;101681.16;5039151;28;45352;-52
2022/11/02 01:40:46;;;;;;;;;5.33;0.67;;;;;14.77;65.75;101681.31;5039104;28;45602;-52
2022/11/02 01:43:21;;;;;;;;;4.00;1.00;;;;;14.75;65.59;101678.78;5037230;28;45860;-52
2022/11/02 01:45:50;;;;;;;;;1.00;1.00;;;;;14.72;65.96;101685.28;5038353;28;45921;-50
2022/11/02 01:48:15;;;;;;;;;1.00;1.00;;;;;14.70;66.10;101687.25;5038903;28;45339;-52
2022/11/02 01:50:41;;;;;;;;;1.00;1.00;;;;;14.70;65.93;101694.44;5038873;28;45320;-50
2022/11/02 01:53:06;;;;;;;;;3.00;1.33;;;;;14.70;66.12;101694.44;5038503;28;45342;-51
2022/11/02 01:55:33;;;;;;;;;4.33;1.00;;;;;14.66;66.20;101696.59;5038550;28;45394;-51
2022/11/02 01:58:06;;;;;;;;;0.00;0.00;;;;;14.65;66.37;101705.63;5038642;28;45344;-52
2022/11/02 02:00:32;;;;;;;;;2.00;0.33;;;;;14.61;66.27;101704.22;5038725;28;45318;-53
2022/11/02 02:03:16;;;;;;;;;1.00;1.00;;;;;14.57;66.31;101705.50;5038424;28;47016;-51
2022/11/02 02:05:45;;;;;;;;;1.33;1.00;;;;;14.59;66.50;101716.09;5038387;28;45456;-53
2022/11/02 02:08:14;;;;;;;;;3.00;0.00;;;;;14.57;66.44;101724.25;5038570;28;45361;-52
2022/11/02 02:10:40;;;;;;;;;3.33;1.00;;;;;14.55;66.58;101717.38;5038569;28;45404;-51
2022/11/02 02:13:06;;;;;;;;;2.00;0.00;;;;;14.55;66.48;101715.53;5038047;28;46022;-52
2022/11/02 02:15:52;;;;;;;;;5.00;2.33;;;;;14.55;66.69;101717.38;5038418;28;45327;-52
2022/11/02 02:18:29;;;;;;;;;3.33;0.00;;;;;14.53;66.81;101717.50;5038424;28;45238;-50
2022/11/02 02:21:11;;;;;;;;;3.67;0.00;;;;;14.48;66.34;101706.38;5038328;28;45320;-55
2022/11/02 02:24:05;;;;;;;;;0.00;0.00;;;;;14.50;66.46;101706.28;5038214;28;45309;-53
2022/11/02 02:26:52;;;;;;;;;0.67;0.67;;;;;14.49;66.28;101718.81;5038192;28;45379;-51
2022/11/02 02:29:23;;;;;;;;;4.33;1.67;;;;;14.45;66.73;101723.59;5038199;28;45296;-51
2022/11/02 02:31:57;;;;;;;;;0.33;0.00;;;;;14.41;66.71;101724.03;5038368;28;45323;-52
2022/11/02 02:35:02;;;;;;;;;1.00;1.00;;;;;14.40;66.48;101727.69;5036541;28;46426;-53
2022/11/02 02:37:35;;;;;;;;;1.00;0.33;;;;;14.40;66.53;101727.69;5014736;28;45560;-53
2022/11/02 02:40:13;;;;;;;;;2.00;0.33;;;;;14.37;66.83;101742.22;5015964;28;45285;-51
2022/11/02 02:42:45;;;;;;;;;0.00;0.00;;;;;14.35;66.72;101730.81;5016146;28;45364;-53
2022/11/02 02:45:15;;;;;;;;;1.67;1.00;;;;;14.33;66.51;101719.44;5015229;28;46174;-49
2022/11/02 02:47:49;;;;;;;;;2.67;1.67;;;;;14.30;66.26;101725.06;5015641;28;45426;-51
2022/11/02 02:50:24;;;;;;;;;2.33;1.00;;;;;14.18;66.24;101719.06;5015740;28;45479;-52
2022/11/02 02:52:52;;;;;;;;;2.67;1.00;;;;;14.25;66.41;101734.53;5015890;28;45349;-51
2022/11/02 02:55:23;;;;;;;;;5.00;1.00;;;;;14.22;66.43;101725.78;5014881;28;46140;-52
2022/11/02 02:57:52;;;;;;;;;3.33;1.00;;;;;14.23;66.49;101722.13;5015445;28;45312;-52
2022/11/02 03:00:17;;;;;;;;;1.33;1.00;;;;;14.23;66.23;101730.16;5015042;28;45469;-52
2022/11/02 03:02:59;;;;;;;;;4.33;2.00;;;;;14.22;65.94;101723.13;5015720;28;45486;-50
2022/11/02 03:05:26;;;;;;;;;3.67;1.00;;;;;14.13;66.16;101712.47;5015306;28;45376;-52
2022/11/02 03:07:51;;;;;;;;;2.33;0.33;;;;;14.21;66.15;101733.97;4998565;28;45411;-51
2022/11/02 03:10:27;;;;;;;;;0.00;0.00;;;;;14.17;66.55;101735.25;5015478;28;45283;-52
2022/11/02 03:13:01;;;;;;;;;4.67;2.00;;;;;14.16;66.44;101739.78;5024866;28;45535;-51
2022/11/02 03:15:39;;;;;;;;;3.67;0.67;;;;;14.13;66.42;101734.69;5037245;28;47071;-51
2022/11/02 03:18:25;;;;;;;;;3.00;0.00;;;;;14.15;66.14;101740.75;5037277;28;45363;-50
2022/11/02 03:21:05;;;;;;;;;2.33;0.67;;;;;14.10;66.51;101743.00;5037394;28;45332;-48
2022/11/02 03:23:51;;;;;;;;;5.00;1.00;;;;;14.05;66.53;101741.78;5037404;28;45360;-49
2022/11/02 03:26:16;;;;;;;;;1.00;1.00;;;;;14.08;66.71;101749.53;5037186;28;45273;-52
2022/11/02 03:28:55;;;;;;;;;0.67;0.67;;;;;14.08;66.83;101745.00;5036984;28;45304;-57
2022/11/02 03:31:47;;;;;;;;;3.67;2.00;;;;;14.07;66.64;101745.97;5037115;28;45430;-52
2022/11/02 03:34:24;;;;;;;;;6.00;1.00;;;;;14.08;66.70;101744.16;5037349;28;45485;-52
2022/11/02 03:36:59;;;;;;;;;3.00;1.00;;;;;14.01;66.50;101743.88;5036967;28;47158;-52
2022/11/02 03:39:35;;;;;;;;;4.33;1.00;;;;;14.02;66.51;101753.59;5036808;28;45400;-50
2022/11/02 03:42:03;;;;;;;;;3.00;0.67;;;;;13.98;66.84;101758.38;5037057;28;45416;-51
2022/11/02 03:44:34;;;;;;;;;7.00;2.00;;;;;14.01;66.83;101769.81;5035392;28;45376;-52
2022/11/02 03:47:00;;;;;;;;;4.33;1.00;;;;;13.99;67.14;101767.28;5036929;28;45501;-50
2022/11/02 03:49:27;;;;;;;;;3.00;2.33;;;;;13.97;67.28;101767.41;5036734;28;45327;-49
2022/11/02 03:51:57;;;;;;;;;5.00;2.00;;;;;13.91;67.40;101770.66;5036993;28;45452;-49
2022/11/02 03:54:41;;;;;;;;;1.00;1.00;;;;;13.96;67.15;101787.13;5037154;28;45264;-52
2022/11/02 03:57:12;;;;;;;;;1.00;1.00;;;;;13.96;67.07;101788.97;5036765;28;45388;-52
2022/11/02 03:59:37;;;;;;;;;4.33;1.00;;;;;13.82;66.95;101770.66;5036476;28;45601;-51
2022/11/02 04:02:03;;;;;;;;;6.00;1.00;;;;;13.90;67.12;101794.88;5037011;28;45611;-48
2022/11/02 04:04:28;;;;;;;;;4.00;1.00;;;;;13.92;67.13;101807.13;5036996;28;45382;-49
2022/11/02 04:06:54;;;;;;;;;7.00;0.67;;;;;13.94;67.03;101806.97;5036655;28;46157;-50
2022/11/02 04:09:20;;;;;;;;;7.67;2.33;;;;;13.91;67.22;101807.28;5039539;28;45352;-49
2022/11/02 04:14:38;;;;;;;;;0.67;0.67;;;;;13.91;67.03;101824.16;5040348;28;45262;-53
2022/11/02 04:19:56;;;;;;;;;1.67;1.00;;;;;13.81;67.07;101812.63;5039999;28;45359;-50
2022/11/02 04:25:18;;;;;;;;;3.33;1.33;;;;;13.85;67.17;101826.56;5040289;28;45402;-48
2022/11/02 04:27:49;;;;;;;;;3.00;1.00;;;;;13.86;67.01;101830.91;5040001;28;45278;-52
2022/11/02 04:30:17;;;;;;;;;1.67;1.00;;;;;13.87;66.51;101843.31;5040047;28;45484;-51
2022/11/02 04:35:29;;;;;;;;;3.00;1.00;;;;;13.82;66.79;101857.13;5040579;28;45391;-52
2022/11/02 04:40:39;;;;;;;;;3.33;1.00;;;;;13.81;66.44;101862.59;5040351;28;45521;-49
2022/11/02 04:43:04;;;;;;;;;2.00;1.67;;;;;13.79;66.40;101864.56;5040611;28;45672;-49
2022/11/02 04:45:30;;;;;;;;;3.00;1.00;;;;;13.77;66.38;101866.53;5039837;28;45573;-52
2022/11/02 04:47:59;;;;;;;;;1.00;0.00;;;;;13.76;66.48;101872.88;5039543;28;45501;-52
2022/11/02 04:50:25;;;;;;;;;5.33;1.67;;;;;13.76;66.38;101879.06;5039613;28;45280;-51
2022/11/02 04:52:58;;;;;;;;;2.00;1.00;;;;;13.73;66.35;101877.50;5039756;28;45994;-50
2022/11/02 04:55:24;;;;;;;;;2.00;2.00;;;;;13.74;66.37;101875.69;5039760;28;45454;-50
2022/11/02 04:57:49;;;;;;;;;2.00;1.00;;;;;13.75;66.42;101874.69;5039410;28;46690;-52
2022/11/02 05:00:15;;;;;;;;;4.00;1.00;;;;;13.73;66.21;101872.16;5038030;28;45522;-51
2022/11/02 05:02:40;;;;;;;;;2.33;1.00;;;;;13.72;66.25;101875.81;5039568;28;45364;-53
2022/11/02 05:05:06;;;;;;;;;3.33;2.00;;;;;13.72;66.33;101877.66;5039673;28;45406;-52
2022/11/02 05:07:31;;;;;;;;;2.00;1.67;;;;;13.69;66.19;101878.78;5039276;28;45855;-52
2022/11/02 05:09:57;;;;;;;;;2.00;2.00;;;;;13.72;66.44;101885.66;5039623;28;45330;-50
2022/11/02 05:12:22;;;;;;;;;4.33;1.00;;;;;13.73;66.03;101900.72;5039534;28;45305;-56
2022/11/02 05:14:47;;;;;;;;;1.00;1.00;;;;;13.68;65.80;101889.59;5039479;28;45398;-49
2022/11/02 05:17:15;;;;;;;;;3.67;2.67;;;;;13.72;66.00;101904.38;5039270;28;46037;-52
2022/11/02 05:19:40;;;;;;;;;5.33;2.00;;;;;13.71;66.00;101906.22;5038709;28;45340;-52
2022/11/02 05:22:05;;;;;;;;;4.67;1.33;;;;;13.67;65.92;101899.47;5039249;28;45211;-51
2022/11/02 05:24:31;;;;;;;;;6.00;2.00;;;;;13.66;66.12;101904.94;5039484;28;45331;-52
2022/11/02 05:26:56;;;;;;;;;2.67;2.00;;;;;13.67;66.12;101910.16;5038962;28;45506;-53
2022/11/02 05:29:21;;;;;;;;;2.00;2.00;;;;;13.66;65.96;101915.66;5039015;28;45278;-50
2022/11/02 05:31:47;;;;;;;;;1.00;0.00;;;;;13.64;66.45;101914.94;5039107;28;45364;-50
2022/11/02 05:34:12;;;;;;;;;4.33;2.00;;;;;13.61;66.66;101921.41;5039321;28;45268;-51
2022/11/02 05:36:37;;;;;;;;;5.00;2.00;;;;;13.63;66.62;101918.59;5038999;28;45371;-50
2022/11/02 05:39:03;;;;;;;;;7.67;1.33;;;;;13.59;66.91;101920.69;5037752;28;45343;-52
2022/11/02 05:41:28;;;;;;;;;5.33;2.00;;;;;13.62;66.51;101925.78;5038792;28;45435;-50
2022/11/02 05:43:53;;;;;;;;;3.33;3.00;;;;;13.61;66.49;101925.88;5039171;28;45317;-50
2022/11/02 05:46:19;;;;;;;;;2.00;2.00;;;;;13.61;66.61;101926.75;5037378;28;45629;-51
2022/11/02 05:48:44;;;;;;;;;2.00;1.67;;;;;13.52;67.27;101918.69;5038821;28;45402;-52
2022/11/02 05:51:09;;;;;;;;;3.00;1.33;;;;;13.58;66.74;101926.19;5039248;28;45411;-53
2022/11/02 05:53:37;;;;;;;;;7.00;2.00;;;;;13.55;66.72;101919.28;5039493;28;45450;-50
2022/11/02 05:56:05;;;;;;;;;3.00;1.00;;;;;13.56;67.02;101930.81;5039366;28;46167;-50
2022/11/02 05:58:31;;;;;;;;;6.33;2.00;;;;;13.55;66.74;101931.81;5038753;28;45708;-53
2022/11/02 06:01:04;;;;;;;;;1.33;1.33;;;;;13.54;67.08;101930.97;5038312;28;45387;-52
2022/11/02 06:03:30;;;;;;;;;2.00;1.00;;;;;13.43;67.42;101917.69;5038737;28;45254;-53
2022/11/02 06:06:03;;;;;;;;;4.00;1.33;;;;;13.50;67.38;101929.53;5038387;28;45299;-53
2022/11/02 06:08:34;;;;;;;;;2.67;2.67;;;;;13.49;67.54;101933.19;5038505;28;45571;-52
2022/11/02 06:11:04;;;;;;;;;6.33;2.33;;;;;13.38;67.53;101917.25;5038353;28;45347;-52
2022/11/02 06:13:29;;;;;;;;;2.33;1.00;;;;;13.47;67.30;101936.00;5038579;28;45409;-51
2022/11/02 06:15:58;;;;;;;;;3.33;2.67;;;;;13.48;67.60;101942.19;5037912;28;45408;-53
2022/11/02 06:18:23;;;;;;;;;6.00;3.00;;;;;13.43;67.36;101937.25;5038308;28;45364;-50
2022/11/02 06:20:49;;;;;;;;;6.67;1.67;;;;;13.40;68.15;101942.00;5038307;28;45245;-51
2022/11/02 06:23:16;;;;;;;;;6.67;2.67;;;;;13.40;67.58;101942.88;5038398;28;45388;-50
2022/11/02 06:25:43;;;;;;;;;2.00;1.00;;;;;13.37;68.10;101948.50;5038198;28;46125;-52
2022/11/02 06:28:08;;;;;;;;;5.00;3.00;;;;;13.31;68.11;101932.97;5037849;28;45368;-52
2022/11/02 06:30:34;;;;;;;;;2.67;2.00;;;;;13.36;67.97;101938.78;5037055;28;45359;-53
2022/11/02 06:32:59;;;;;;;;;4.00;2.33;;;;;13.39;68.16;101946.50;5038404;28;45437;-53
2022/11/02 06:35:24;;;;;;;;;1.67;1.67;;;;;13.34;68.22;101948.75;5038096;28;45460;-53
2022/11/02 06:37:50;;;;;;;;;4.00;2.00;;;;;13.37;67.87;101947.66;5036698;28;45353;-50
2022/11/02 06:40:15;;;;;;;;;5.00;3.00;;;;;13.37;67.98;101953.00;5037970;28;45507;-50
2022/11/02 06:42:41;;;;;;;;;4.00;3.00;;;;;13.37;67.94;101955.66;5038315;28;45321;-50
2022/11/02 06:45:07;;;;;;;;;7.00;3.00;;;;;13.39;67.63;101964.38;5037630;28;45985;-52
2022/11/02 06:47:34;;;;;;;;;3.67;1.67;;;;;13.37;67.91;101964.53;5038025;28;45178;-50
2022/11/02 06:50:00;;;;;;;;;0.67;0.67;;;;;13.35;67.79;101966.47;5037976;28;45415;-50
2022/11/02 06:52:27;;;;;;;;;4.00;3.00;;;;;13.26;67.73;101958.44;5037826;28;45419;-50
2022/11/02 06:54:52;;;;;;;;;3.33;2.00;;;;;13.36;68.21;101986.91;5037637;28;45513;-51
2022/11/02 06:57:18;;;;;;;;;5.67;2.67;;;;;13.30;68.24;101987.41;5037780;28;45281;-49
2022/11/02 06:59:43;;;;;;;;;9.67;2.33;;;;;13.31;68.09;101996.28;5037734;28;45554;-52
2022/11/02 07:02:09;;;;;;;;;4.00;2.33;;;;;13.29;68.07;101974.19;5037824;28;45415;-51
2022/11/02 07:04:34;;;;;;;;;5.33;3.67;;;;;13.34;67.56;101980.81;5037308;28;46402;-53
2022/11/02 07:06:59;;;;;;;;;5.67;3.33;;;;;13.34;68.44;101983.50;5037542;28;45264;-50
2022/11/02 07:09:25;;;;;;;;;8.67;2.67;;;;;13.37;67.85;101985.06;5036446;28;45427;-50
2022/11/02 07:11:50;;;;;;;;;5.33;3.00;;;;;13.36;68.33;101986.91;5036320;28;45395;-52
2022/11/02 07:14:16;;;;;;;;;4.00;3.00;;;;;13.40;68.17;101990.13;5037574;28;46946;-53
2022/11/02 07:16:41;;;;;;;;;4.00;3.00;;;;;13.40;68.06;101990.13;5037175;28;45236;-53
2022/11/02 07:19:06;;;;;;;;;6.67;3.00;;;;;13.37;68.06;101995.75;5037601;28;45202;-54
2022/11/02 07:21:32;;;;;;;;;7.67;6.00;;;;;13.32;68.80;101993.50;5037600;28;45249;-50
2022/11/02 07:23:57;;;;;;;;;5.67;4.33;;;;;13.30;68.41;102002.63;5037187;28;46072;-52
2022/11/02 07:26:22;;;;;;;;;10.67;4.00;;;;;13.29;68.78;102008.94;5037547;28;45317;-52
2022/11/02 07:28:48;;;;;;;;;9.00;3.67;;;;;13.26;68.47;102001.19;5037416;28;45293;-53
2022/11/02 07:31:13;;;;;;;;;4.00;2.00;;;;;13.32;68.82;102012.19;5037191;28;45643;-52
2022/11/02 07:33:38;;;;;;;;;4.00;3.67;;;;;13.27;69.09;102009.06;5037137;28;47080;-51
2022/11/02 07:36:05;;;;;;;;;2.67;2.67;;;;;13.17;69.08;102003.63;5037037;28;45391;-48
2022/11/02 07:38:30;;;;;;;;;6.00;3.00;;;;;13.19;69.51;102007.03;5037272;28;45434;-51
2022/11/02 07:40:55;;;;;;;;;11.67;7.00;;;;;13.22;69.27;102014.81;5035949;28;45357;-51
2022/11/02 07:43:21;;;;;;;;;10.33;4.00;;;;;13.29;69.45;102003.59;5036578;28;47027;-49
2022/11/02 07:45:46;;;;;;;;;7.67;4.33;;;;;13.32;69.25;102008.69;5037082;28;45512;-50
2022/11/02 07:48:11;;;;;;;;;5.67;3.67;;;;;13.42;69.01;102009.56;5037217;28;45339;-51
2022/11/02 07:50:37;;;;;;;;;11.00;4.00;;;;;13.45;68.97;102001.28;5037270;28;45293;-52
2022/11/02 07:53:02;;;;;;;;;10.00;4.67;;;;;13.50;68.51;102015.09;5036950;28;45376;-48
2022/11/02 07:55:30;;;;;;;;;11.50;4.00;;;;;13.50;68.67;102014.25;5037005;28;45320;-48
2022/11/02 07:58:04;;;;;;;;;2.67;2.00;;;;;13.53;68.45;102022.00;5036940;28;45212;-46
2022/11/02 08:00:33;;;;;;;;;5.33;3.00;;;;;13.51;68.40;102029.28;5037039;28;45427;-47
2022/11/02 08:03:00;;;;;;;;;7.33;5.33;;;;;13.45;69.02;102025.34;5036882;28;46229;-49
2022/11/02 08:05:26;;;;;;;;;3.67;3.33;;;;;13.42;68.85;102030.94;5036859;28;45365;-46
2022/11/02 08:07:59;;;;;;;;;6.33;4.67;;;;;13.42;68.80;102033.63;5036983;28;45469;-49
2022/11/02 08:10:26;;;;;;;;;6.67;6.67;;;;;13.39;69.59;102021.34;5037245;28;45341;-50
2022/11/02 08:12:51;;;;;;;;;6.33;4.67;;;;;13.41;68.60;102026.59;5037239;28;45361;-51
2022/11/02 08:15:17;;;;;;;;;6.67;4.00;;;;;13.37;68.87;102014.47;5037185;28;45342;-51
2022/11/02 08:17:42;;;;;;;;;13.33;8.67;;;;;13.37;69.41;102015.31;5037142;28;45367;-52
2022/11/02 08:20:08;;;;;;;;;8.67;7.00;;;;;13.42;69.13;102020.25;5036884;28;45297;-50
2022/11/02 08:22:37;;;;;;;;;4.00;4.00;;;;;13.44;69.16;102028.97;5036403;28;47341;-49
2022/11/02 08:25:03;;;;;;;;;10.67;5.00;;;;;13.48;69.37;102022.38;5036892;28;45455;-52
2022/11/02 08:27:29;;;;;;;;;12.67;8.33;;;;;13.53;69.26;102020.16;5036547;28;45334;-51
2022/11/02 08:29:54;;;;;;;;;5.33;5.00;;;;;13.58;69.04;102031.31;5035374;28;45522;-50
2022/11/02 08:32:20;;;;;;;;;7.00;4.67;;;;;13.62;68.72;102039.91;5036289;28;47021;-50
2022/11/02 08:34:45;;;;;;;;;12.33;6.00;;;;;13.59;68.84;102032.97;5036329;28;45318;-52
2022/11/02 08:37:10;;;;;;;;;5.00;5.00;;;;;13.61;68.67;102022.13;5036479;28;45404;-50
2022/11/02 08:39:36;;;;;;;;;12.00;7.67;;;;;13.63;68.75;102020.19;5036503;28;45315;-49
2022/11/02 08:42:01;;;;;;;;;3.33;3.00;;;;;13.76;68.35;102027.97;5036429;28;46102;-53
2022/11/02 08:44:27;;;;;;;;;8.67;6.33;;;;;13.82;68.27;102022.94;5036111;28;45280;-51
2022/11/02 08:46:54;;;;;;;;;5.33;3.33;;;;;13.96;68.12;102035.91;5036243;28;45692;-50
2022/11/02 08:49:20;;;;;;;;;6.67;4.00;;;;;13.98;67.89;102023.25;5036519;28;45341;-49
2022/11/02 08:51:45;;;;;;;;;11.00;7.33;;;;;14.00;68.00;102033.81;5036222;28;46102;-50
2022/11/02 08:54:11;;;;;;;;;8.33;4.33;;;;;14.06;67.82;102024.38;5037164;28;45430;-52
2022/11/02 08:56:37;;;;;;;;;12.33;10.00;;;;;14.16;67.46;102030.63;5039603;28;45490;-51
2022/11/02 08:59:02;;;;;;;;;6.33;3.67;;;;;14.25;67.00;102027.09;5039839;28;45288;-51
2022/11/02 09:01:30;;;;;;;;;7.00;4.00;;;;;14.36;66.64;102029.63;5039067;28;46342;-50
2022/11/02 09:03:56;;;;;;;;;6.33;4.00;;;;;14.65;65.82;102024.31;5039391;28;45402;-52
2022/11/02 09:06:21;;;;;;;;;9.67;8.00;;;;;15.48;64.23;102022.69;5039548;28;45421;-53
2022/11/02 09:08:46;;;;;;;;;4.67;4.33;;;;;16.25;61.87;102017.06;5039641;28;45342;-52
2022/11/02 09:11:12;;;;;;;;;9.00;6.33;;;;;16.94;59.98;102019.03;5039278;28;45628;-53
2022/11/02 09:13:37;;;;;;;;;5.00;4.00;;;;;17.61;58.10;102016.53;5039378;28;45366;-53
2022/11/02 09:16:03;;;;;;;;;6.00;3.75;;;;;18.22;56.92;102014.56;5039244;28;45533;-49
2022/11/02 09:18:28;;;;;;;;;4.00;4.00;;;;;18.91;54.43;102013.25;5039449;28;45304;-53
2022/11/02 09:20:54;;;;;;;;;5.25;3.50;;;;;19.44;52.52;101991.03;5038996;28;45372;-51
2022/11/02 09:23:20;;;;;;;;;4.00;3.25;;;;;19.72;52.41;101998.72;5039244;28;45417;-53
2022/11/02 09:25:46;;;;;;;;;7.25;4.75;;;;;19.82;51.36;101998.50;5039317;28;45345;-51
2022/11/02 09:28:14;;;;;;;;;8.25;5.50;;;;;19.75;51.35;101989.41;5039285;28;45545;-49
2022/11/02 09:30:40;;;;;;;;;8.00;5.75;;;;;19.88;51.66;101995.06;5038970;28;45322;-53
2022/11/02 09:33:06;;;;;;;;;7.20;4.60;;;;;20.08;50.74;101998.16;5038895;28;45398;-50
2022/11/02 09:35:35;;;;;;;;;7.00;6.00;;;;;20.28;50.82;101995.84;5039038;28;45442;-52
2022/11/02 09:38:01;;;;;;;;;7.75;5.50;;;;;20.59;49.92;101996.63;5039335;28;45525;-52
2022/11/02 09:40:36;;;;;;;;;9.00;7.25;;;;;20.57;49.76;101995.97;5038641;28;46134;-52
2022/11/02 09:43:19;;;;;;;;;11.40;7.60;;;;;20.83;49.54;101986.63;5038914;28;45253;-51
2022/11/02 09:46:01;;;;;;;;;5.20;3.20;;;;;20.90;49.49;101993.81;5038622;28;45314;-51
2022/11/02 09:49:14;;;;;;;;;5.25;5.00;;;;;21.04;49.23;101992.16;5038726;28;45378;-51
2022/11/02 09:51:50;;;;;;;;;6.00;5.25;;;;;21.16;48.46;101979.84;5038190;28;45438;-53
2022/11/02 09:54:38;;;;;;;;;6.00;3.00;;;;;21.26;47.65;101990.38;5038594;28;45456;-52
2022/11/02 09:57:08;;;;;;;;;6.80;4.00;;;;;21.30;47.39;101988.13;5038785;28;45399;-52
2022/11/02 09:59:34;;;;;;;;;4.20;4.00;;;;;21.38;47.05;101986.19;5039079;28;45454;-49
2022/11/02 10:01:59;;;;;;;;;5.75;5.00;;;;;21.03;47.87;101990.47;5038349;28;46150;-52
2022/11/02 10:04:32;;;;;;;;;8.50;4.50;;;;;20.84;47.97;101982.88;5038619;28;45601;-52
2022/11/02 10:07:25;;;;;;;;;6.60;4.40;;;;;20.69;49.07;101990.97;5038833;28;45239;-52
2022/11/02 10:10:04;;;;;;;;;9.20;4.20;;;;;20.64;49.65;101982.56;5038598;28;45500;-53
2022/11/02 10:12:41;;;;;;;;;5.60;3.80;;;;;20.57;49.45;101982.47;5038396;28;45382;-51
2022/11/02 10:15:09;;;;;;;;;6.60;4.00;;;;;20.65;49.65;101992.38;5038256;28;45478;-49
2022/11/02 10:17:37;;;;;;;;;7.60;5.80;;;;;20.74;49.09;101985.03;5038320;28;45348;-53
2022/11/02 10:20:13;;;;;;;;;9.00;5.75;;;;;20.82;49.24;101985.78;5037263;28;45564;-52
2022/11/02 10:22:41;;;;;;;;;4.60;4.00;;;;;20.82;48.89;101979.53;5038098;28;46025;-51
2022/11/02 10:25:12;;;;;;;;;7.40;6.00;;;;;20.68;48.63;101979.31;5038232;28;45426;-51
2022/11/02 10:27:39;;;;;;;;;8.20;5.00;;;;;20.67;49.02;101985.75;5038124;28;45387;-51
2022/11/02 10:30:10;;;;;;;;;4.75;4.75;;;;;20.66;49.22;101988.63;5038505;28;45230;-49
2022/11/02 10:32:38;;;;;;;;;7.25;4.50;;;;;20.72;49.16;101984.34;5037748;28;47329;-51
2022/11/02 10:35:15;;;;;;;;;7.00;4.40;;;;;20.68;48.74;101981.16;5038110;28;45340;-52
2022/11/02 10:37:57;;;;;;;;;6.20;5.60;;;;;20.70;49.13;101981.00;5038202;28;45370;-50
2022/11/02 10:41:16;;;;;;;;;9.00;7.00;;;;;20.40;50.06;101987.13;5038167;28;45426;-52
2022/11/02 10:44:01;;;;;;;;;4.50;4.50;;;;;20.01;51.26;101991.78;4995829;28;47150;-51
2022/11/02 10:46:50;;;;;;;;;8.20;6.00;;;;;19.92;50.72;101993.69;4995465;28;45502;-52
2022/11/02 10:49:34;;;;;;;;;7.80;4.80;;;;;19.86;49.70;101987.16;4995874;28;45350;-49
2022/11/02 10:52:00;;;;;;;;;4.50;3.00;;;;;19.96;49.41;101991.50;4996084;28;45326;-51
2022/11/02 10:54:25;;;;;;;;;5.50;3.00;;;;;19.88;49.40;101995.91;4995751;28;46350;-52
2022/11/02 10:56:51;;;;;;;;;2.75;2.75;;;;;19.92;49.78;101980.19;4995720;28;45459;-50
2022/11/02 10:59:19;;;;;;;;;3.75;2.75;;;;;19.96;49.62;101981.53;4995880;28;45358;-49
2022/11/02 11:02:15;;;;;;;;;1.50;1.50;;;;;20.52;48.60;101974.06;5001719;28;45526;-50
2022/11/02 11:04:41;;;;;;;;;6.75;3.00;;;;;20.98;46.99;101978.50;5008888;28;45453;-51
2022/11/02 11:07:23;;;;;;;;;4.25;2.00;;;;;21.17;46.89;101972.56;5015285;28;45511;-51
2022/11/02 11:09:53;;;;;;;;;2.80;2.80;;;;;21.39;45.73;101973.50;5015066;28;45443;-47
2022/11/02 11:12:25;;;;;;;;;6.40;3.20;;;;;21.72;45.58;101976.63;5015343;28;45665;-51
2022/11/02 11:14:55;;;;;;;;;12.00;6.25;;;;;22.14;45.27;101961.50;5014855;28;46086;-49
2022/11/02 11:17:26;;;;;;;;;9.00;6.20;;;;;22.34;45.03;101962.53;5034730;28;45948;-50
2022/11/02 11:19:54;;;;;;;;;21.20;7.80;;;;;22.23;44.76;101962.19;5057181;28;45423;-51
2022/11/02 11:22:35;;;;;;;;;6.80;5.00;;;;;22.47;44.12;101960.97;5057520;28;45318;-51
2022/11/02 11:25:23;;;;;;;;;10.80;7.00;;;;;22.19;45.14;101950.91;5056946;28;45373;-50
2022/11/02 11:27:53;;;;;;;;;7.40;6.60;;;;;22.48;43.45;101943.66;5057051;28;45480;-50
2022/11/02 11:30:36;;;;;;;;;7.20;5.40;;;;;22.57;44.24;101954.16;5057181;28;45421;-52
2022/11/02 11:33:05;;;;;;;;;7.00;4.00;;;;;22.74;43.42;101949.25;5057312;28;45297;-51
2022/11/02 11:35:34;;;;;;;;;8.40;5.60;;;;;22.77;43.49;101942.63;5055772;28;47588;-52
2022/11/02 11:38:03;;;;;;;;;9.40;5.00;;;;;22.99;42.91;101946.13;5056820;28;45340;-47
2022/11/02 11:40:36;;;;;;;;;7.20;6.00;;;;;22.96;43.32;101944.63;5057015;28;45295;-51
2022/11/02 11:43:04;;;;;;;;;6.00;5.60;;;;;22.77;42.98;101948.88;5057499;28;45397;-48
2022/11/02 11:45:31;;;;;;;;;8.80;5.40;;;;;22.53;43.46;101944.72;5056570;28;46602;-52
2022/11/02 11:48:03;;;;;;;;;7.80;5.80;;;;;22.26;44.22;101934.72;5056550;28;45529;-49